Share

Shonto, AZ

Grand Canyon National Park (KGCN) Elev 6608 ft | 35.95 °N, 112.15 °W | Change Station

Current weather conditions updated 23 minutes ago

Clear
Clear
48 °F
Feels Like 48 °F
N
0
Wind Variable Wind from North
Sunrise 6:42 AM
Sunset 8:01 PM
Moon Waning Gibbous

Tomorrow is forecast to be Warmer than today.

Pressure 30.09 in
Visibility 10.0 miles
Clouds Clear
Dew Point 31 °F
Humidity 52%
Rainfall 0.00 in
Snow Depth Not available.
UV 0 out of 16
Pollen 8.20 out of 12
Air Quality Not available.
Flu Activity Local Activity
METAR KGCN 210254Z 00000KT 10SM CLR 09/M01 A3023 RMK AO2 SLP188 T00891006 53011

More Conditions Fewer Conditions

Pressure 30.09 in
Visibility 10.0 miles
Clouds Clear
Dew Point 31 °F
Humidity 52%
Rainfall 0.00 in
Snow Depth Not available.
UV 0 out of 16
Pollen 8.20 out of 12
Air Quality Not available.
Flu Activity Local Activity
METAR KGCN 210254Z 00000KT 10SM CLR 09/M01 A3023 RMK AO2 SLP188 T00891006 53011

More Conditions Fewer Conditions

10-Day Weather Forecast

Almanac

Astronomy

Apr. 20, 2014 Rise Set
Actual Time 6:42 AM MDT 8:01 PM MDT
Civil Twilight 6:15 AM MDT 8:28 PM MDT
Nautical Twilight 5:42 AM MDT 9:00 PM MDT
Astronomical Twilight 5:09 AM MDT 9:34 PM MDT
Moon 12:41 AM MDT (4/20) 11:09 AM MDT (4/20)
Length of Visible Light 14h 13m
Length of Day
13h 19m
Tomorrow will be 2m 10s longer.
Waning Gibbous, 64% of the Moon is Illuminated
Today
Waning Gibbous
Apr 22
Last Quarter
Apr 29
New
May 6
First Quarter
May 14
Full

Today's Extremes

State Highs State Lows

Community

  • Sun Pillar and Geese
    Sun Pillar and Geese
  • Showers on the Way
    Showers on the Way
  • Easter Morning Fog
    Easter Morning Fog
  • Easter Dance
    Easter Dance
  • spring skiing mount Baker WA
    spring skiing mount Baker WA

WunderPhotos

Upload Photos

1,703,542 photos uploaded!

WunderBlogs® & News

Nearby

Snow Depth

Station Depth Elevation
Snowslide Canyon 4 in 9730 ft
Happy Jack 0 in 7630 ft
Baker Butte 0 in 7300 ft
Heber 0 in 7640 ft
Workman Creek 0 in 6900 ft

Coastal Water Temperatures

Place Temperature
No Stations Reporting

Earthquake Activity

City Distance Mag. Time & Date
No recent earthquake activity has been reported nearby.
Minimum magnitude displayed is 2.5.

Nearby Weather Stations

Station Location Temp. Dew Point Humidity Wind Precip. Elev Updated Type
HADS KAYENTA 16 WSW AZ, Shonto, AZ 58 °F - - North  at  - 0.00 in / hr 7274 ft 7:25 PM MST MADIS

Show More Stations Show Fewer Stations

What do you think?

We're not finished. Please let us know what you like, what you don't like, and what you are still missing.